Sheridan, WY

10:31 PM MDT on September 21, 2014 (GMT -0600)
North Airport Area | Change Station
CLOSE
Current Station
Personal Weather Station
Location: Sheridan, WY
Elevation: 3917 ft
Nearby Weather Stations

Elev 3917 ft 44.78 °N, 106.97 °W | Updated 9 minutes ago

Clear
Clear
62.4 °F
Feels Like 62.4 °F
N
0.0
Wind Variable Wind from East

Today
High -- | Low -- °F
--% Chance of Precip.
Yesterday
High -- | Low -- °F
Precip. -- in
6:53 AM 7:07 PM
Waning Crescent, 4% visible
Pressure 30.07 in
Visibility 10.0 miles
Clouds Clear
Dew Point 46 °F
Humidity 54%
Rainfall 0.00 in
Snow Depth 0 in , 1 in , 0 in
UV 0 out of 12
Pollen 5.00 out of 12
Air Quality Not available.
Flu Activity Not available.
METAR KSHR 220353Z AUTO 16009KT 10SM CLR 17/07 A3012 RMK AO2 SLP181 T01720067

More Conditions Fewer Conditions

Pressure 30.07 in
Visibility 10.0 miles
Clouds Clear
Dew Point 46 °F
Humidity 54%
Rainfall 0.00 in
Snow Depth 0 in , 1 in , 0 in
UV 0 out of 12
Pollen 5.00 out of 12
Air Quality Not available.
Flu Activity Not available.
METAR KSHR 220353Z AUTO 16009KT 10SM CLR 17/07 A3012 RMK AO2 SLP181 T01720067

More Conditions Fewer Conditions

10-Day Weather Forecast

Almanac

Astronomy

Sep. 21, 2014 Rise Set
Actual Time 6:53 AM MDT 7:07 PM MDT
Civil Twilight 6:24 AM MDT 7:36 PM MDT
Nautical Twilight 5:50 AM MDT 8:10 PM MDT
Astronomical Twilight 5:14 AM MDT 8:45 PM MDT
Moon 4:25 AM MDT (9/21) 5:48 PM MDT (9/21)
Length of Visible Light 13h 11m
Length of Day
12h 13m
Tomorrow will be 3m 5s shorter.
Waning Crescent, 4% of the Moon is Illuminated
Sep 22
Waning Crescent
Sep 24
New
Oct 1
First Quarter
Oct 8
Full
Oct 15
Last Quarter

Today's Extremes

State Highs State Lows

Community

WunderPhotos

Upload Photos

1,755,384 photos uploaded!

Nearby

Snow Depth

Station Depth Elevation
Phillips Bench 0 in 8200 ft
Gros Ventre Summit 1 in 8750 ft
Reno Hill 0 in 8500 ft
Willow Creek 1 in 8450 ft
Blind Bull Summit 1 in 8900 ft

Earthquake Activity

City Distance Mag. Time & Date
No recent earthquake activity has been reported nearby.
Minimum magnitude displayed is 2.5.

Coastal Water Temperatures

Place Temperature
No Stations Reporting

Nearby Weather Stations